sensor_id;sensor_type;location;lat;lon;timestamp;P1;durP1;ratioP1;P2;durP2;ratioP2
20896;SDS011;10608;42.600;23.398;2023-06-22T00:01:26;47.33;;;45.03;;
20896;SDS011;10608;42.600;23.398;2023-06-22T00:03:52;51.00;;;48.30;;
20896;SDS011;10608;42.600;23.398;2023-06-22T00:06:17;48.13;;;45.73;;
20896;SDS011;10608;42.600;23.398;2023-06-22T00:08:43;51.37;;;48.87;;
20896;SDS011;10608;42.600;23.398;2023-06-22T00:11:08;54.33;;;51.77;;
20896;SDS011;10608;42.600;23.398;2023-06-22T00:13:34;55.10;;;52.43;;
20896;SDS011;10608;42.600;23.398;2023-06-22T00:15:59;51.77;;;49.47;;
20896;SDS011;10608;42.600;23.398;2023-06-22T00:18:25;67.63;;;64.47;;
20896;SDS011;10608;42.600;23.398;2023-06-22T00:20:53;61.33;;;58.60;;
20896;SDS011;10608;42.600;23.398;2023-06-22T00:23:23;59.20;;;56.40;;
20896;SDS011;10608;42.600;23.398;2023-06-22T00:25:49;53.53;;;51.00;;
20896;SDS011;10608;42.600;23.398;2023-06-22T00:28:14;42.97;;;40.83;;
20896;SDS011;10608;42.600;23.398;2023-06-22T00:30:40;41.20;;;39.20;;
20896;SDS011;10608;42.600;23.398;2023-06-22T00:33:06;42.73;;;40.73;;
20896;SDS011;10608;42.600;23.398;2023-06-22T00:35:32;47.97;;;45.57;;
20896;SDS011;10608;42.600;23.398;2023-06-22T00:37:59;40.00;;;38.03;;
20896;SDS011;10608;42.600;23.398;2023-06-22T00:40:30;37.47;;;35.60;;
20896;SDS011;10608;42.600;23.398;2023-06-22T00:42:56;62.37;;;59.50;;
20896;SDS011;10608;42.600;23.398;2023-06-22T00:45:23;88.43;;;84.30;;
20896;SDS011;10608;42.600;23.398;2023-06-22T00:47:52;90.17;;;86.17;;
20896;SDS011;10608;42.600;23.398;2023-06-22T00:50:20;94.43;;;90.23;;
20896;SDS011;10608;42.600;23.398;2023-06-22T00:52:48;85.97;;;81.93;;
20896;SDS011;10608;42.600;23.398;2023-06-22T00:55:17;72.17;;;68.80;;
20896;SDS011;10608;42.600;23.398;2023-06-22T00:57:45;77.97;;;74.43;;
20896;SDS011;10608;42.600;23.398;2023-06-22T01:00:11;88.23;;;83.97;;
20896;SDS011;10608;42.600;23.398;2023-06-22T01:02:44;76.40;;;72.73;;
20896;SDS011;10608;42.600;23.398;2023-06-22T01:05:13;80.30;;;76.50;;
20896;SDS011;10608;42.600;23.398;2023-06-22T01:07:40;79.43;;;75.80;;
20896;SDS011;10608;42.600;23.398;2023-06-22T01:13:02;75.27;;;71.87;;
20896;SDS011;10608;42.600;23.398;2023-06-22T01:15:33;70.70;;;67.40;;
20896;SDS011;10608;42.600;23.398;2023-06-22T01:18:00;72.20;;;68.70;;
20896;SDS011;10608;42.600;23.398;2023-06-22T01:20:29;87.13;;;82.30;;
20896;SDS011;10608;42.600;23.398;2023-06-22T01:25:28;80.20;;;76.53;;
20896;SDS011;10608;42.600;23.398;2023-06-22T01:30:56;82.70;;;79.00;;
20896;SDS011;10608;42.600;23.398;2023-06-22T01:33:34;82.07;;;78.27;;
20896;SDS011;10608;42.600;23.398;2023-06-22T01:36:02;92.63;;;88.17;;
20896;SDS011;10608;42.600;23.398;2023-06-22T01:38:31;90.63;;;86.37;;
20896;SDS011;10608;42.600;23.398;2023-06-22T01:40:58;108.97;;;104.10;;
20896;SDS011;10608;42.600;23.398;2023-06-22T01:43:26;98.20;;;93.10;;
20896;SDS011;10608;42.600;23.398;2023-06-22T01:45:54;112.73;;;107.77;;
20896;SDS011;10608;42.600;23.398;2023-06-22T01:48:21;107.07;;;102.20;;
20896;SDS011;10608;42.600;23.398;2023-06-22T01:50:47;100.47;;;95.70;;
20896;SDS011;10608;42.600;23.398;2023-06-22T01:53:13;112.03;;;106.23;;
20896;SDS011;10608;42.600;23.398;2023-06-22T01:55:38;109.00;;;103.67;;
20896;SDS011;10608;42.600;23.398;2023-06-22T01:58:04;112.03;;;106.80;;
20896;SDS011;10608;42.600;23.398;2023-06-22T02:00:31;109.40;;;104.30;;
20896;SDS011;10608;42.600;23.398;2023-06-22T02:03:11;105.27;;;100.17;;
20896;SDS011;10608;42.600;23.398;2023-06-22T02:05:46;108.53;;;103.43;;
20896;SDS011;10608;42.600;23.398;2023-06-22T02:08:22;101.20;;;96.37;;
20896;SDS011;10608;42.600;23.398;2023-06-22T02:10:50;99.80;;;95.00;;
20896;SDS011;10608;42.600;23.398;2023-06-22T02:13:17;100.83;;;95.67;;
20896;SDS011;10608;42.600;23.398;2023-06-22T02:15:44;107.97;;;102.93;;
20896;SDS011;10608;42.600;23.398;2023-06-22T02:18:10;101.23;;;96.33;;
20896;SDS011;10608;42.600;23.398;2023-06-22T02:20:37;107.63;;;102.87;;
20896;SDS011;10608;42.600;23.398;2023-06-22T02:23:03;108.10;;;103.20;;
20896;SDS011;10608;42.600;23.398;2023-06-22T02:25:28;94.23;;;89.90;;
20896;SDS011;10608;42.600;23.398;2023-06-22T02:27:54;74.43;;;71.00;;
20896;SDS011;10608;42.600;23.398;2023-06-22T02:30:19;82.23;;;78.47;;
20896;SDS011;10608;42.600;23.398;2023-06-22T02:32:44;85.53;;;81.70;;
20896;SDS011;10608;42.600;23.398;2023-06-22T02:35:10;85.93;;;81.87;;
20896;SDS011;10608;42.600;23.398;2023-06-22T02:37:36;84.63;;;80.83;;
20896;SDS011;10608;42.600;23.398;2023-06-22T02:40:04;92.53;;;88.53;;
20896;SDS011;10608;42.600;23.398;2023-06-22T02:42:32;79.43;;;75.70;;
20896;SDS011;10608;42.600;23.398;2023-06-22T02:44:57;81.00;;;77.47;;
20896;SDS011;10608;42.600;23.398;2023-06-22T02:47:23;101.80;;;97.27;;
20896;SDS011;10608;42.600;23.398;2023-06-22T02:49:48;105.00;;;100.40;;
20896;SDS011;10608;42.600;23.398;2023-06-22T02:52:14;94.20;;;90.03;;
20896;SDS011;10608;42.600;23.398;2023-06-22T02:54:39;84.97;;;81.07;;
20896;SDS011;10608;42.600;23.398;2023-06-22T02:57:04;93.10;;;88.80;;
20896;SDS011;10608;42.600;23.398;2023-06-22T02:59:30;98.07;;;93.37;;
20896;SDS011;10608;42.600;23.398;2023-06-22T03:01:55;99.10;;;94.20;;
20896;SDS011;10608;42.600;23.398;2023-06-22T03:04:21;104.83;;;99.80;;
20896;SDS011;10608;42.600;23.398;2023-06-22T03:06:46;111.70;;;106.63;;
20896;SDS011;10608;42.600;23.398;2023-06-22T03:09:16;105.33;;;100.63;;
20896;SDS011;10608;42.600;23.398;2023-06-22T03:11:42;97.80;;;93.17;;
20896;SDS011;10608;42.600;23.398;2023-06-22T03:14:08;106.87;;;102.07;;
20896;SDS011;10608;42.600;23.398;2023-06-22T03:16:33;102.93;;;97.73;;
20896;SDS011;10608;42.600;23.398;2023-06-22T03:18:59;97.03;;;92.47;;
20896;SDS011;10608;42.600;23.398;2023-06-22T03:21:26;102.33;;;97.63;;
20896;SDS011;10608;42.600;23.398;2023-06-22T03:23:53;108.30;;;103.37;;
20896;SDS011;10608;42.600;23.398;2023-06-22T03:26:18;131.03;;;125.10;;
20896;SDS011;10608;42.600;23.398;2023-06-22T03:28:44;184.53;;;176.37;;
20896;SDS011;10608;42.600;23.398;2023-06-22T03:31:10;103.40;;;98.70;;
20896;SDS011;10608;42.600;23.398;2023-06-22T03:33:35;93.60;;;89.40;;
20896;SDS011;10608;42.600;23.398;2023-06-22T03:36:01;74.73;;;71.23;;
20896;SDS011;10608;42.600;23.398;2023-06-22T03:38:26;96.77;;;92.20;;
20896;SDS011;10608;42.600;23.398;2023-06-22T03:40:51;92.90;;;88.70;;
20896;SDS011;10608;42.600;23.398;2023-06-22T03:43:17;48.27;;;46.00;;
20896;SDS011;10608;42.600;23.398;2023-06-22T03:45:42;56.13;;;53.53;;
20896;SDS011;10608;42.600;23.398;2023-06-22T03:48:10;25.33;;;23.93;;
20896;SDS011;10608;42.600;23.398;2023-06-22T03:50:36;43.77;;;41.67;;
20896;SDS011;10608;42.600;23.398;2023-06-22T03:53:01;26.53;;;24.47;;
20896;SDS011;10608;42.600;23.398;2023-06-22T03:55:27;27.03;;;25.53;;
20896;SDS011;10608;42.600;23.398;2023-06-22T03:57:53;34.40;;;32.77;;
20896;SDS011;10608;42.600;23.398;2023-06-22T04:14:05;40.20;;;38.30;;
20896;SDS011;10608;42.600;23.398;2023-06-22T04:16:30;45.63;;;43.53;;
20896;SDS011;10608;42.600;23.398;2023-06-22T04:18:56;49.10;;;46.77;;
20896;SDS011;10608;42.600;23.398;2023-06-22T04:21:21;63.13;;;60.27;;
20896;SDS011;10608;42.600;23.398;2023-06-22T04:23:46;41.07;;;39.17;;
20896;SDS011;10608;42.600;23.398;2023-06-22T04:26:12;25.77;;;24.43;;
20896;SDS011;10608;42.600;23.398;2023-06-22T04:28:39;31.13;;;29.23;;
20896;SDS011;10608;42.600;23.398;2023-06-22T04:31:05;47.33;;;44.83;;
20896;SDS011;10608;42.600;23.398;2023-06-22T04:33:30;49.03;;;46.77;;
20896;SDS011;10608;42.600;23.398;2023-06-22T04:35:56;51.90;;;49.50;;
20896;SDS011;10608;42.600;23.398;2023-06-22T04:38:28;42.67;;;40.53;;
20896;SDS011;10608;42.600;23.398;2023-06-22T04:40:58;24.90;;;23.60;;
20896;SDS011;10608;42.600;23.398;2023-06-22T04:43:23;27.20;;;25.80;;
20896;SDS011;10608;42.600;23.398;2023-06-22T04:45:49;21.47;;;20.37;;
20896;SDS011;10608;42.600;23.398;2023-06-22T04:48:17;29.00;;;27.60;;
20896;SDS011;10608;42.600;23.398;2023-06-22T04:50:42;53.37;;;50.93;;
20896;SDS011;10608;42.600;23.398;2023-06-22T04:53:09;60.73;;;57.80;;
20896;SDS011;10608;42.600;23.398;2023-06-22T04:55:37;55.40;;;52.87;;
20896;SDS011;10608;42.600;23.398;2023-06-22T04:58:06;39.67;;;37.77;;
20896;SDS011;10608;42.600;23.398;2023-06-22T05:00:32;24.93;;;23.57;;
20896;SDS011;10608;42.600;23.398;2023-06-22T05:03:01;25.70;;;24.30;;
20896;SDS011;10608;42.600;23.398;2023-06-22T05:05:28;46.73;;;44.60;;
20896;SDS011;10608;42.600;23.398;2023-06-22T05:07:56;35.00;;;33.37;;
20896;SDS011;10608;42.600;23.398;2023-06-22T05:10:24;22.30;;;21.20;;
20896;SDS011;10608;42.600;23.398;2023-06-22T05:12:50;22.10;;;20.93;;
20896;SDS011;10608;42.600;23.398;2023-06-22T05:15:16;33.53;;;31.83;;
20896;SDS011;10608;42.600;23.398;2023-06-22T05:17:41;45.30;;;43.27;;
20896;SDS011;10608;42.600;23.398;2023-06-22T05:20:13;20.20;;;19.07;;
20896;SDS011;10608;42.600;23.398;2023-06-22T05:22:39;22.07;;;20.90;;
20896;SDS011;10608;42.600;23.398;2023-06-22T05:25:08;26.40;;;25.03;;
20896;SDS011;10608;42.600;23.398;2023-06-22T05:27:35;20.60;;;19.47;;
20896;SDS011;10608;42.600;23.398;2023-06-22T05:30:05;23.37;;;22.17;;
20896;SDS011;10608;42.600;23.398;2023-06-22T05:32:32;18.23;;;17.17;;
20896;SDS011;10608;42.600;23.398;2023-06-22T05:34:58;15.13;;;14.33;;
20896;SDS011;10608;42.600;23.398;2023-06-22T05:37:24;21.73;;;20.63;;
20896;SDS011;10608;42.600;23.398;2023-06-22T05:39:49;25.77;;;24.47;;
20896;SDS011;10608;42.600;23.398;2023-06-22T05:42:14;24.20;;;22.53;;
20896;SDS011;10608;42.600;23.398;2023-06-22T05:44:40;21.23;;;20.00;;
20896;SDS011;10608;42.600;23.398;2023-06-22T05:47:05;25.90;;;24.60;;
20896;SDS011;10608;42.600;23.398;2023-06-22T05:49:31;21.30;;;20.10;;
20896;SDS011;10608;42.600;23.398;2023-06-22T05:51:58;28.90;;;27.47;;
20896;SDS011;10608;42.600;23.398;2023-06-22T05:54:24;32.33;;;30.73;;
20896;SDS011;10608;42.600;23.398;2023-06-22T05:56:50;49.33;;;46.90;;
20896;SDS011;10608;42.600;23.398;2023-06-22T05:59:15;51.47;;;49.17;;
20896;SDS011;10608;42.600;23.398;2023-06-22T06:01:40;40.63;;;38.70;;
20896;SDS011;10608;42.600;23.398;2023-06-22T06:04:06;43.10;;;41.13;;
20896;SDS011;10608;42.600;23.398;2023-06-22T06:06:34;22.73;;;21.53;;
20896;SDS011;10608;42.600;23.398;2023-06-22T06:09:02;17.30;;;16.20;;
20896;SDS011;10608;42.600;23.398;2023-06-22T06:11:28;20.77;;;19.57;;
20896;SDS011;10608;42.600;23.398;2023-06-22T06:13:54;12.80;;;12.10;;
20896;SDS011;10608;42.600;23.398;2023-06-22T06:16:19;15.17;;;13.97;;
20896;SDS011;10608;42.600;23.398;2023-06-22T06:18:45;20.37;;;19.27;;
20896;SDS011;10608;42.600;23.398;2023-06-22T06:21:10;22.83;;;21.43;;
20896;SDS011;10608;42.600;23.398;2023-06-22T06:23:35;28.40;;;26.90;;
20896;SDS011;10608;42.600;23.398;2023-06-22T06:26:01;14.33;;;13.43;;
20896;SDS011;10608;42.600;23.398;2023-06-22T06:28:26;13.13;;;12.37;;
20896;SDS011;10608;42.600;23.398;2023-06-22T06:30:52;16.20;;;15.20;;
20896;SDS011;10608;42.600;23.398;2023-06-22T06:33:17;16.20;;;15.20;;
20896;SDS011;10608;42.600;23.398;2023-06-22T06:35:43;16.80;;;15.60;;
20896;SDS011;10608;42.600;23.398;2023-06-22T06:38:08;12.53;;;11.73;;
20896;SDS011;10608;42.600;23.398;2023-06-22T06:40:33;20.23;;;19.13;;
20896;SDS011;10608;42.600;23.398;2023-06-22T06:42:59;15.13;;;14.23;;
20896;SDS011;10608;42.600;23.398;2023-06-22T06:45:24;14.67;;;13.77;;
20896;SDS011;10608;42.600;23.398;2023-06-22T06:47:50;15.90;;;15.10;;
20896;SDS011;10608;42.600;23.398;2023-06-22T06:50:16;10.80;;;10.20;;
20896;SDS011;10608;42.600;23.398;2023-06-22T06:52:42;18.13;;;17.13;;
20896;SDS011;10608;42.600;23.398;2023-06-22T06:55:08;22.97;;;21.77;;
20896;SDS011;10608;42.600;23.398;2023-06-22T06:57:38;19.67;;;18.63;;
20896;SDS011;10608;42.600;23.398;2023-06-22T07:00:05;31.07;;;29.43;;
20896;SDS011;10608;42.600;23.398;2023-06-22T07:02:34;22.63;;;21.47;;
20896;SDS011;10608;42.600;23.398;2023-06-22T07:05:00;31.95;;;30.42;;
20896;SDS011;10608;42.600;23.398;2023-06-22T07:07:29;28.63;;;27.23;;
20896;SDS011;10608;42.600;23.398;2023-06-22T07:09:54;20.65;;;19.08;;
20896;SDS011;10608;42.600;23.398;2023-06-22T07:12:20;26.88;;;25.58;;
20896;SDS011;10608;42.600;23.398;2023-06-22T07:14:46;20.50;;;19.48;;
20896;SDS011;10608;42.600;23.398;2023-06-22T07:17:11;17.80;;;16.90;;
20896;SDS011;10608;42.600;23.398;2023-06-22T07:19:36;35.00;;;33.43;;
20896;SDS011;10608;42.600;23.398;2023-06-22T07:22:02;41.00;;;39.17;;
20896;SDS011;10608;42.600;23.398;2023-06-22T07:24:27;29.00;;;27.63;;
20896;SDS011;10608;42.600;23.398;2023-06-22T07:26:53;13.40;;;12.63;;
20896;SDS011;10608;42.600;23.398;2023-06-22T07:29:19;13.07;;;12.27;;
20896;SDS011;10608;42.600;23.398;2023-06-22T07:31:46;12.13;;;11.43;;
20896;SDS011;10608;42.600;23.398;2023-06-22T07:34:12;29.15;;;27.38;;
20896;SDS011;10608;42.600;23.398;2023-06-22T07:36:37;22.65;;;21.45;;
20896;SDS011;10608;42.600;23.398;2023-06-22T07:39:03;21.20;;;20.20;;
20896;SDS011;10608;42.600;23.398;2023-06-22T07:41:29;21.80;;;20.67;;
20896;SDS011;10608;42.600;23.398;2023-06-22T07:43:54;19.63;;;18.45;;
20896;SDS011;10608;42.600;23.398;2023-06-22T07:46:20;14.85;;;14.00;;
20896;SDS011;10608;42.600;23.398;2023-06-22T07:48:45;16.80;;;15.88;;
20896;SDS011;10608;42.600;23.398;2023-06-22T07:51:11;14.25;;;13.45;;
20896;SDS011;10608;42.600;23.398;2023-06-22T07:53:38;16.17;;;15.27;;
20896;SDS011;10608;42.600;23.398;2023-06-22T07:56:05;16.20;;;15.30;;
20896;SDS011;10608;42.600;23.398;2023-06-22T07:58:32;11.15;;;10.40;;
20896;SDS011;10608;42.600;23.398;2023-06-22T08:00:58;14.18;;;13.38;;
20896;SDS011;10608;42.600;23.398;2023-06-22T08:03:23;17.20;;;16.20;;
20896;SDS011;10608;42.600;23.398;2023-06-22T08:05:48;23.20;;;22.02;;
20896;SDS011;10608;42.600;23.398;2023-06-22T08:08:14;21.35;;;20.15;;
20896;SDS011;10608;42.600;23.398;2023-06-22T08:10:40;14.25;;;13.35;;
20896;SDS011;10608;42.600;23.398;2023-06-22T08:13:07;14.30;;;13.43;;
20896;SDS011;10608;42.600;23.398;2023-06-22T08:15:32;16.02;;;15.10;;
20896;SDS011;10608;42.600;23.398;2023-06-22T08:17:57;21.65;;;20.50;;
20896;SDS011;10608;42.600;23.398;2023-06-22T08:20:24;17.60;;;16.60;;
20896;SDS011;10608;42.600;23.398;2023-06-22T08:22:49;20.00;;;18.85;;
20896;SDS011;10608;42.600;23.398;2023-06-22T08:25:15;16.42;;;15.52;;
20896;SDS011;10608;42.600;23.398;2023-06-22T08:27:40;13.88;;;12.98;;
20896;SDS011;10608;42.600;23.398;2023-06-22T08:30:09;12.93;;;12.10;;
20896;SDS011;10608;42.600;23.398;2023-06-22T08:32:36;14.37;;;13.37;;
20896;SDS011;10608;42.600;23.398;2023-06-22T08:35:01;13.50;;;12.43;;
20896;SDS011;10608;42.600;23.398;2023-06-22T08:37:26;17.33;;;16.23;;
20896;SDS011;10608;42.600;23.398;2023-06-22T08:39:59;14.67;;;13.73;;
20896;SDS011;10608;42.600;23.398;2023-06-22T08:42:26;17.53;;;16.53;;
20896;SDS011;10608;42.600;23.398;2023-06-22T08:44:52;23.13;;;21.90;;
20896;SDS011;10608;42.600;23.398;2023-06-22T08:47:17;20.10;;;18.75;;
20896;SDS011;10608;42.600;23.398;2023-06-22T08:49:43;17.70;;;16.75;;
20896;SDS011;10608;42.600;23.398;2023-06-22T08:52:09;18.33;;;17.02;;
20896;SDS011;10608;42.600;23.398;2023-06-22T08:54:34;17.25;;;16.15;;
20896;SDS011;10608;42.600;23.398;2023-06-22T08:57:00;16.30;;;15.40;;
20896;SDS011;10608;42.600;23.398;2023-06-22T08:59:26;19.43;;;18.23;;
20896;SDS011;10608;42.600;23.398;2023-06-22T09:01:51;24.57;;;23.37;;
20896;SDS011;10608;42.600;23.398;2023-06-22T09:04:17;18.57;;;17.47;;
20896;SDS011;10608;42.600;23.398;2023-06-22T09:06:42;21.63;;;20.40;;
20896;SDS011;10608;42.600;23.398;2023-06-22T09:09:15;19.02;;;17.98;;
20896;SDS011;10608;42.600;23.398;2023-06-22T09:11:41;18.33;;;17.23;;
20896;SDS011;10608;42.600;23.398;2023-06-22T09:14:07;14.40;;;13.50;;
20896;SDS011;10608;42.600;23.398;2023-06-22T09:16:33;13.88;;;12.95;;
20896;SDS011;10608;42.600;23.398;2023-06-22T09:18:59;13.40;;;12.35;;
20896;SDS011;10608;42.600;23.398;2023-06-22T09:21:24;13.18;;;12.38;;
20896;SDS011;10608;42.600;23.398;2023-06-22T09:23:50;16.17;;;15.38;;
20896;SDS011;10608;42.600;23.398;2023-06-22T09:26:19;14.00;;;13.05;;
20896;SDS011;10608;42.600;23.398;2023-06-22T09:28:45;17.05;;;16.13;;
20896;SDS011;10608;42.600;23.398;2023-06-22T09:31:11;12.80;;;12.05;;
20896;SDS011;10608;42.600;23.398;2023-06-22T09:33:36;13.90;;;13.05;;
20896;SDS011;10608;42.600;23.398;2023-06-22T09:36:05;11.63;;;10.63;;
20896;SDS011;10608;42.600;23.398;2023-06-22T09:38:37;12.13;;;11.32;;
20896;SDS011;10608;42.600;23.398;2023-06-22T09:41:03;12.60;;;11.80;;
20896;SDS011;10608;42.600;23.398;2023-06-22T09:43:29;11.45;;;10.70;;
20896;SDS011;10608;42.600;23.398;2023-06-22T09:45:56;12.38;;;11.68;;
20896;SDS011;10608;42.600;23.398;2023-06-22T09:48:21;13.32;;;12.45;;
20896;SDS011;10608;42.600;23.398;2023-06-22T09:50:47;12.77;;;11.90;;
20896;SDS011;10608;42.600;23.398;2023-06-22T09:53:12;10.32;;;9.73;;
20896;SDS011;10608;42.600;23.398;2023-06-22T09:55:38;13.32;;;12.63;;
20896;SDS011;10608;42.600;23.398;2023-06-22T09:58:03;11.35;;;10.65;;
20896;SDS011;10608;42.600;23.398;2023-06-22T10:00:28;12.15;;;11.38;;
20896;SDS011;10608;42.600;23.398;2023-06-22T10:02:54;15.57;;;14.77;;
20896;SDS011;10608;42.600;23.398;2023-06-22T10:05:21;12.53;;;11.73;;
20896;SDS011;10608;42.600;23.398;2023-06-22T10:07:46;12.87;;;12.17;;
20896;SDS011;10608;42.600;23.398;2023-06-22T10:10:12;12.83;;;11.93;;
20896;SDS011;10608;42.600;23.398;2023-06-22T10:12:54;17.50;;;16.43;;
20896;SDS011;10608;42.600;23.398;2023-06-22T10:15:20;16.17;;;15.27;;
20896;SDS011;10608;42.600;23.398;2023-06-22T10:17:46;15.77;;;14.87;;
20896;SDS011;10608;42.600;23.398;2023-06-22T10:20:12;13.87;;;13.00;;
20896;SDS011;10608;42.600;23.398;2023-06-22T10:22:42;15.37;;;14.47;;
20896;SDS011;10608;42.600;23.398;2023-06-22T10:25:09;14.33;;;13.33;;
20896;SDS011;10608;42.600;23.398;2023-06-22T10:27:35;14.40;;;13.57;;
20896;SDS011;10608;42.600;23.398;2023-06-22T10:30:01;15.73;;;14.73;;
20896;SDS011;10608;42.600;23.398;2023-06-22T10:32:27;18.13;;;17.03;;
20896;SDS011;10608;42.600;23.398;2023-06-22T10:34:53;14.00;;;13.20;;
20896;SDS011;10608;42.600;23.398;2023-06-22T10:37:19;13.60;;;12.80;;
20896;SDS011;10608;42.600;23.398;2023-06-22T10:39:44;14.10;;;13.30;;
20896;SDS011;10608;42.600;23.398;2023-06-22T10:42:10;14.00;;;13.20;;
20896;SDS011;10608;42.600;23.398;2023-06-22T10:44:36;13.73;;;12.93;;
20896;SDS011;10608;42.600;23.398;2023-06-22T10:47:02;13.57;;;12.77;;
20896;SDS011;10608;42.600;23.398;2023-06-22T10:49:27;15.47;;;14.53;;
20896;SDS011;10608;42.600;23.398;2023-06-22T10:51:52;17.73;;;16.53;;
20896;SDS011;10608;42.600;23.398;2023-06-22T10:54:18;20.87;;;19.50;;
20896;SDS011;10608;42.600;23.398;2023-06-22T10:56:44;25.30;;;24.00;;
20896;SDS011;10608;42.600;23.398;2023-06-22T10:59:09;17.20;;;16.10;;
20896;SDS011;10608;42.600;23.398;2023-06-22T11:01:35;16.77;;;15.87;;
20896;SDS011;10608;42.600;23.398;2023-06-22T11:04:01;16.80;;;15.90;;
20896;SDS011;10608;42.600;23.398;2023-06-22T11:06:27;14.97;;;14.17;;
20896;SDS011;10608;42.600;23.398;2023-06-22T11:08:52;17.93;;;16.97;;
20896;SDS011;10608;42.600;23.398;2023-06-22T11:11:18;16.03;;;15.23;;
20896;SDS011;10608;42.600;23.398;2023-06-22T11:13:43;14.87;;;14.13;;
20896;SDS011;10608;42.600;23.398;2023-06-22T11:16:09;16.40;;;15.20;;
20896;SDS011;10608;42.600;23.398;2023-06-22T11:18:35;17.53;;;16.60;;
20896;SDS011;10608;42.600;23.398;2023-06-22T11:21:01;18.83;;;17.73;;
20896;SDS011;10608;42.600;23.398;2023-06-22T11:23:26;18.00;;;16.90;;
20896;SDS011;10608;42.600;23.398;2023-06-22T11:25:53;19.83;;;18.73;;
20896;SDS011;10608;42.600;23.398;2023-06-22T11:28:19;23.93;;;22.73;;
20896;SDS011;10608;42.600;23.398;2023-06-22T11:30:44;25.90;;;24.30;;
20896;SDS011;10608;42.600;23.398;2023-06-22T11:33:10;23.67;;;22.37;;
20896;SDS011;10608;42.600;23.398;2023-06-22T11:35:35;22.23;;;21.00;;
20896;SDS011;10608;42.600;23.398;2023-06-22T11:38:01;19.70;;;18.70;;
20896;SDS011;10608;42.600;23.398;2023-06-22T11:40:28;22.77;;;21.57;;
20896;SDS011;10608;42.600;23.398;2023-06-22T11:42:53;19.10;;;18.00;;
20896;SDS011;10608;42.600;23.398;2023-06-22T11:45:19;18.27;;;16.87;;
20896;SDS011;10608;42.600;23.398;2023-06-22T11:47:45;25.60;;;24.30;;
20896;SDS011;10608;42.600;23.398;2023-06-22T11:50:11;19.83;;;18.70;;
20896;SDS011;10608;42.600;23.398;2023-06-22T11:52:36;27.30;;;25.90;;
20896;SDS011;10608;42.600;23.398;2023-06-22T11:55:02;17.40;;;16.40;;
20896;SDS011;10608;42.600;23.398;2023-06-22T11:57:29;20.33;;;19.23;;
20896;SDS011;10608;42.600;23.398;2023-06-22T11:59:54;20.47;;;19.27;;
20896;SDS011;10608;42.600;23.398;2023-06-22T12:02:20;16.60;;;15.50;;
20896;SDS011;10608;42.600;23.398;2023-06-22T12:04:45;16.77;;;15.80;;
20896;SDS011;10608;42.600;23.398;2023-06-22T12:07:11;16.87;;;15.97;;
20896;SDS011;10608;42.600;23.398;2023-06-22T12:09:36;21.13;;;19.93;;
20896;SDS011;10608;42.600;23.398;2023-06-22T12:12:02;29.00;;;27.57;;
20896;SDS011;10608;42.600;23.398;2023-06-22T12:14:28;34.47;;;32.77;;
20896;SDS011;10608;42.600;23.398;2023-06-22T12:16:53;33.30;;;31.70;;
20896;SDS011;10608;42.600;23.398;2023-06-22T12:19:18;25.33;;;24.03;;
20896;SDS011;10608;42.600;23.398;2023-06-22T12:21:44;17.23;;;16.27;;
20896;SDS011;10608;42.600;23.398;2023-06-22T12:24:10;23.40;;;22.10;;
20896;SDS011;10608;42.600;23.398;2023-06-22T12:26:36;18.37;;;17.33;;
20896;SDS011;10608;42.600;23.398;2023-06-22T12:29:01;22.27;;;21.00;;
20896;SDS011;10608;42.600;23.398;2023-06-22T12:31:27;18.83;;;17.67;;
20896;SDS011;10608;42.600;23.398;2023-06-22T12:33:52;44.40;;;42.40;;
20896;SDS011;10608;42.600;23.398;2023-06-22T12:36:17;26.63;;;25.17;;
20896;SDS011;10608;42.600;23.398;2023-06-22T12:38:43;34.23;;;32.37;;
20896;SDS011;10608;42.600;23.398;2023-06-22T12:41:08;28.57;;;27.07;;
20896;SDS011;10608;42.600;23.398;2023-06-22T12:43:34;41.97;;;39.90;;
20896;SDS011;10608;42.600;23.398;2023-06-22T12:45:59;22.97;;;21.77;;
20896;SDS011;10608;42.600;23.398;2023-06-22T12:48:25;43.73;;;41.47;;
20896;SDS011;10608;42.600;23.398;2023-06-22T12:50:52;41.03;;;39.00;;
20896;SDS011;10608;42.600;23.398;2023-06-22T12:53:17;46.93;;;44.13;;
20896;SDS011;10608;42.600;23.398;2023-06-22T12:55:43;38.80;;;36.60;;
20896;SDS011;10608;42.600;23.398;2023-06-22T12:58:08;28.57;;;26.97;;
20896;SDS011;10608;42.600;23.398;2023-06-22T13:00:34;41.20;;;38.90;;
20896;SDS011;10608;42.600;23.398;2023-06-22T13:02:59;64.00;;;60.80;;
20896;SDS011;10608;42.600;23.398;2023-06-22T13:05:24;51.37;;;48.87;;
20896;SDS011;10608;42.600;23.398;2023-06-22T13:07:50;55.97;;;53.20;;
20896;SDS011;10608;42.600;23.398;2023-06-22T13:10:15;62.93;;;59.90;;
20896;SDS011;10608;42.600;23.398;2023-06-22T13:12:40;51.73;;;49.13;;
20896;SDS011;10608;42.600;23.398;2023-06-22T13:15:06;55.93;;;52.83;;
20896;SDS011;10608;42.600;23.398;2023-06-22T13:17:32;92.90;;;88.70;;
20896;SDS011;10608;42.600;23.398;2023-06-22T13:19:57;81.10;;;77.27;;
20896;SDS011;10608;42.600;23.398;2023-06-22T13:22:32;83.27;;;79.40;;
20896;SDS011;10608;42.600;23.398;2023-06-22T13:25:04;97.87;;;93.40;;
20896;SDS011;10608;42.600;23.398;2023-06-22T13:27:31;104.97;;;100.07;;
20896;SDS011;10608;42.600;23.398;2023-06-22T13:29:56;110.27;;;104.67;;
20896;SDS011;10608;42.600;23.398;2023-06-22T13:32:22;109.23;;;104.03;;
20896;SDS011;10608;42.600;23.398;2023-06-22T13:34:47;108.30;;;102.97;;
20896;SDS011;10608;42.600;23.398;2023-06-22T13:37:12;101.30;;;96.53;;
20896;SDS011;10608;42.600;23.398;2023-06-22T13:39:38;101.10;;;95.87;;
20896;SDS011;10608;42.600;23.398;2023-06-22T13:42:03;102.60;;;97.90;;
20896;SDS011;10608;42.600;23.398;2023-06-22T13:44:29;117.57;;;112.17;;
20896;SDS011;10608;42.600;23.398;2023-06-22T13:46:55;115.23;;;109.80;;
20896;SDS011;10608;42.600;23.398;2023-06-22T13:49:20;96.63;;;92.20;;
20896;SDS011;10608;42.600;23.398;2023-06-22T13:51:46;97.87;;;93.47;;
20896;SDS011;10608;42.600;23.398;2023-06-22T13:54:13;89.63;;;85.43;;
20896;SDS011;10608;42.600;23.398;2023-06-22T13:56:38;94.10;;;89.80;;
20896;SDS011;10608;42.600;23.398;2023-06-22T13:59:04;114.30;;;109.20;;
20896;SDS011;10608;42.600;23.398;2023-06-22T14:01:29;112.53;;;107.30;;
20896;SDS011;10608;42.600;23.398;2023-06-22T14:03:54;109.70;;;104.70;;
20896;SDS011;10608;42.600;23.398;2023-06-22T14:06:20;115.90;;;110.40;;
20896;SDS011;10608;42.600;23.398;2023-06-22T14:08:45;115.17;;;109.90;;
20896;SDS011;10608;42.600;23.398;2023-06-22T14:11:11;112.50;;;107.50;;
20896;SDS011;10608;42.600;23.398;2023-06-22T14:13:36;102.50;;;97.73;;
20896;SDS011;10608;42.600;23.398;2023-06-22T14:16:02;110.00;;;104.77;;
20896;SDS011;10608;42.600;23.398;2023-06-22T14:18:28;118.87;;;113.47;;
20896;SDS011;10608;42.600;23.398;2023-06-22T14:20:54;171.33;;;163.60;;
20896;SDS011;10608;42.600;23.398;2023-06-22T14:23:19;156.07;;;148.73;;